createdAt,value
2022-11-19T00:01:28.302Z,100796.34
2022-11-19T00:03:56.208Z,100793.66
2022-11-19T00:06:27.458Z,100783.09
2022-11-19T00:08:57.261Z,100794.88
2022-11-19T00:11:46.963Z,100782.78
2022-11-19T00:14:16.132Z,100794.47
2022-11-19T00:16:44.396Z,100794.97
2022-11-19T00:19:12.248Z,100801.47
2022-11-19T00:21:39.193Z,100795.38
2022-11-19T00:24:07.000Z,100801.53
2022-11-19T00:26:33.985Z,100799.63
2022-11-19T00:29:01.467Z,100805.88
2022-11-19T00:31:28.116Z,100794.75
2022-11-19T00:33:55.168Z,100789.03
2022-11-19T00:36:23.569Z,100793.00
2022-11-19T00:38:50.964Z,100795.72
2022-11-19T00:41:17.697Z,100791.44
2022-11-19T00:43:47.314Z,100793.25
2022-11-19T00:46:18.418Z,100794.94
2022-11-19T00:48:47.378Z,100803.84
2022-11-19T00:51:16.792Z,100803.75
2022-11-19T00:53:43.901Z,100813.78
2022-11-19T00:56:15.886Z,100809.69
2022-11-19T00:58:43.824Z,100819.75
2022-11-19T01:01:13.130Z,100835.06
2022-11-19T01:03:42.187Z,100837.25
2022-11-19T01:06:13.189Z,100842.28
2022-11-19T01:08:42.203Z,100830.22
2022-11-19T01:11:23.452Z,100839.31
2022-11-19T01:13:50.405Z,100830.78
2022-11-19T01:16:31.945Z,100832.97
2022-11-19T01:18:58.778Z,100829.47
2022-11-19T01:21:33.233Z,100827.16
2022-11-19T01:24:01.539Z,100825.97
2022-11-19T01:26:29.648Z,100822.22
2022-11-19T01:28:57.289Z,100821.97
2022-11-19T01:31:29.213Z,100820.97
2022-11-19T01:33:57.485Z,100818.16
2022-11-19T01:36:29.137Z,100821.34
2022-11-19T01:38:57.891Z,100818.16
2022-11-19T01:41:32.823Z,100830.31
2022-11-19T01:44:06.818Z,100836.13
2022-11-19T01:46:38.635Z,100832.63
2022-11-19T01:49:19.385Z,100837.09
2022-11-19T01:52:00.579Z,100842.66
2022-11-19T01:54:40.099Z,100848.88
2022-11-19T01:57:16.412Z,100848.88
2022-11-19T01:59:50.343Z,100839.81
2022-11-19T02:02:25.385Z,100846.94
2022-11-19T02:04:53.936Z,100844.72
2022-11-19T02:07:28.989Z,100844.19
2022-11-19T02:09:59.785Z,100837.84
2022-11-19T02:13:05.250Z,100839.69
2022-11-19T02:16:08.383Z,100840.41
2022-11-19T02:19:00.493Z,100845.34
2022-11-19T02:21:42.297Z,100845.53
2022-11-19T02:25:04.813Z,100852.47
2022-11-19T02:28:12.040Z,100843.38
2022-11-19T02:30:49.037Z,100840.88
2022-11-19T02:33:59.581Z,100845.50
2022-11-19T02:36:41.993Z,100841.34
2022-11-19T02:39:24.801Z,100846.78
2022-11-19T02:42:11.995Z,100843.72
2022-11-19T02:44:59.568Z,100833.97
2022-11-19T02:47:38.721Z,100841.38
2022-11-19T02:50:26.545Z,100840.13
2022-11-19T02:52:54.017Z,100842.50
2022-11-19T02:55:23.615Z,100838.91
2022-11-19T02:58:38.254Z,100845.75
2022-11-19T03:01:26.777Z,100850.81
2022-11-19T03:04:13.687Z,100855.84
2022-11-19T03:06:40.969Z,100855.91
2022-11-19T03:09:07.979Z,100855.34
2022-11-19T03:11:35.019Z,100856.41
2022-11-19T03:14:39.418Z,100855.44
2022-11-19T03:17:29.169Z,100849.34
2022-11-19T03:20:13.122Z,100852.22
2022-11-19T03:23:01.872Z,100850.50
2022-11-19T03:25:53.202Z,100853.78
2022-11-19T03:28:34.003Z,100849.03
2022-11-19T03:31:04.168Z,100844.06
2022-11-19T03:33:49.445Z,100843.41
2022-11-19T03:36:31.175Z,100840.56
2022-11-19T03:39:11.956Z,100846.44
2022-11-19T03:41:43.411Z,100850.94
2022-11-19T03:44:25.194Z,100846.25
2022-11-19T03:47:09.954Z,100857.94
2022-11-19T03:49:46.176Z,100851.13
2022-11-19T03:52:22.017Z,100849.50
2022-11-19T03:54:48.870Z,100849.50
2022-11-19T03:57:23.605Z,100861.47
2022-11-19T03:59:50.526Z,100859.22
2022-11-19T04:02:18.246Z,100854.69
2022-11-19T04:04:47.733Z,100857.56
2022-11-19T04:07:34.271Z,100857.22
2022-11-19T04:10:01.069Z,100857.97
2022-11-19T04:12:27.703Z,100856.16
2022-11-19T04:14:54.288Z,100861.56
2022-11-19T04:17:21.021Z,100860.72
2022-11-19T04:19:48.172Z,100859.66
2022-11-19T04:22:15.204Z,100865.94
2022-11-19T04:24:41.779Z,100863.44
2022-11-19T04:27:08.512Z,100862.59
2022-11-19T04:29:35.222Z,100866.66
2022-11-19T04:32:01.837Z,100868.44
2022-11-19T04:34:28.443Z,100869.31
2022-11-19T04:36:55.156Z,100876.59
2022-11-19T04:39:24.321Z,100873.19
2022-11-19T04:41:50.907Z,100874.66
2022-11-19T04:44:17.569Z,100876.22
2022-11-19T04:46:44.280Z,100870.81
2022-11-19T04:49:10.975Z,100866.06
2022-11-19T04:51:37.707Z,100868.88
2022-11-19T04:54:04.759Z,100873.59
2022-11-19T04:56:31.496Z,100866.47
2022-11-19T04:58:58.109Z,100871.22
2022-11-19T05:01:24.751Z,100869.47
2022-11-19T05:03:51.486Z,100864.09
2022-11-19T05:06:18.980Z,100866.16
2022-11-19T05:16:48.887Z,100858.31
2022-11-19T05:48:49.272Z,100851.03
2022-11-19T05:51:16.454Z,100843.81
2022-11-19T05:53:44.107Z,100849.88
2022-11-19T05:56:11.115Z,100856.84
2022-11-19T05:58:37.809Z,100852.47
2022-11-19T06:01:05.201Z,100861.88
2022-11-19T06:03:32.756Z,100856.13
2022-11-19T06:05:59.415Z,100855.66
2022-11-19T06:08:25.993Z,100860.34
2022-11-19T06:10:52.601Z,100856.09
2022-11-19T06:13:19.423Z,100856.56
2022-11-19T06:15:46.341Z,100852.72
2022-11-19T06:18:13.020Z,100850.75
2022-11-19T06:20:39.973Z,100842.72
2022-11-19T06:23:08.713Z,100845.44
2022-11-19T06:25:35.377Z,100853.00
2022-11-19T06:28:02.124Z,100855.66
2022-11-19T06:30:28.775Z,100856.16
2022-11-19T06:32:56.686Z,100859.31
2022-11-19T06:35:25.302Z,100851.59
2022-11-19T06:37:51.954Z,100856.94
2022-11-19T06:40:18.605Z,100863.78
2022-11-19T06:42:49.834Z,100863.41
2022-11-19T06:45:17.743Z,100861.13
2022-11-19T06:47:48.996Z,100857.16
2022-11-19T06:58:20.735Z,100856.13
2022-11-19T07:06:19.473Z,100851.59
2022-11-19T07:16:49.273Z,100847.72
2022-11-19T07:19:15.917Z,100854.06
2022-11-19T07:21:42.686Z,100850.09
2022-11-19T07:24:10.805Z,100851.06
2022-11-19T07:26:38.729Z,100850.22
2022-11-19T07:29:08.800Z,100857.38
2022-11-19T07:31:35.537Z,100848.13
2022-11-19T07:34:02.196Z,100853.63
2022-11-19T07:52:53.004Z,100859.09
2022-11-19T08:57:51.014Z,100840.88
2022-11-19T09:00:20.130Z,100832.63
2022-11-19T09:02:47.236Z,100826.84
2022-11-19T09:05:22.192Z,100836.53
2022-11-19T09:10:32.511Z,100832.50
2022-11-19T09:13:05.195Z,100827.69
2022-11-19T09:15:32.588Z,100825.47
2022-11-19T09:17:59.839Z,100826.44
2022-11-19T09:20:26.493Z,100832.09
2022-11-19T09:22:53.164Z,100824.84
2022-11-19T09:25:19.768Z,100831.06
2022-11-19T09:27:46.403Z,100831.41
2022-11-19T09:30:14.050Z,100825.66
2022-11-19T09:32:40.770Z,100834.09
2022-11-19T09:35:10.400Z,100829.41
2022-11-19T09:37:37.100Z,100832.72
2022-11-19T09:40:05.806Z,100823.31
2022-11-19T09:43:15.830Z,100826.22
2022-11-19T09:46:58.080Z,100819.38
2022-11-19T09:50:13.737Z,100827.94
2022-11-19T09:52:53.402Z,100818.41
2022-11-19T09:55:33.712Z,100821.19
2022-11-19T09:58:09.596Z,100823.75
2022-11-19T10:00:36.607Z,100822.78
2022-11-19T10:03:17.325Z,100819.03
2022-11-19T10:06:30.222Z,100816.38
2022-11-19T10:09:48.455Z,100816.03
2022-11-19T10:12:45.993Z,100812.88
2022-11-19T10:15:37.618Z,100810.38
2022-11-19T10:18:28.460Z,100805.78
2022-11-19T10:21:20.799Z,100811.31
2022-11-19T10:24:00.799Z,100807.69
2022-11-19T10:26:39.114Z,100808.25
2022-11-19T10:29:19.748Z,100807.25
2022-11-19T10:31:50.992Z,100814.00
2022-11-19T10:34:36.966Z,100803.72
2022-11-19T10:37:23.406Z,100803.84
2022-11-19T10:40:15.565Z,100800.41
2022-11-19T10:42:54.236Z,100798.19
2022-11-19T10:45:27.520Z,100790.84
2022-11-19T10:48:20.082Z,100801.88
2022-11-19T10:50:49.819Z,100795.25
2022-11-19T10:53:38.148Z,100795.53
2022-11-19T10:56:38.281Z,100788.22
2022-11-19T10:59:23.738Z,100784.59
2022-11-19T11:02:31.632Z,100783.41
2022-11-19T11:05:12.011Z,100771.22
2022-11-19T11:07:57.998Z,100775.81
2022-11-19T11:10:35.344Z,100764.50
2022-11-19T11:13:53.305Z,100763.56
2022-11-19T11:16:45.834Z,100758.72
2022-11-19T11:19:22.021Z,100751.00
2022-11-19T11:21:57.322Z,100752.47
2022-11-19T11:24:38.767Z,100749.78
2022-11-19T11:27:31.523Z,100748.22
2022-11-19T11:30:14.133Z,100738.53
2022-11-19T11:32:42.352Z,100744.72
2022-11-19T11:35:38.546Z,100740.13
2022-11-19T11:38:05.877Z,100745.38
2022-11-19T11:40:32.729Z,100741.78
2022-11-19T11:42:59.688Z,100742.75
2022-11-19T11:45:37.303Z,100734.22
2022-11-19T11:48:16.779Z,100724.28
2022-11-19T11:50:46.848Z,100720.88
2022-11-19T11:53:27.253Z,100718.31
2022-11-19T11:56:01.517Z,100714.88
2022-11-19T11:58:28.113Z,100712.97
2022-11-19T12:01:16.029Z,100709.97
2022-11-19T12:03:58.506Z,100714.06
2022-11-19T12:06:48.286Z,100717.34
2022-11-19T12:09:41.994Z,100714.25
2022-11-19T12:13:07.983Z,100715.31
2022-11-19T12:16:10.405Z,100713.16
2022-11-19T12:19:14.018Z,100711.19
2022-11-19T12:22:19.857Z,100710.66
2022-11-19T12:25:39.928Z,100707.94
2022-11-19T12:28:24.261Z,100700.22
2022-11-19T12:31:12.152Z,100697.00
2022-11-19T12:33:53.612Z,100689.28
2022-11-19T12:36:56.845Z,100690.41
2022-11-19T12:40:03.902Z,100687.16
2022-11-19T12:43:01.315Z,100678.59
2022-11-19T12:46:18.671Z,100680.66
2022-11-19T12:49:10.179Z,100677.75
2022-11-19T12:52:04.525Z,100675.72
2022-11-19T12:55:01.318Z,100670.97
2022-11-19T12:57:49.276Z,100670.56
2022-11-19T13:00:24.904Z,100671.25
2022-11-19T13:03:12.686Z,100667.31
2022-11-19T13:06:03.423Z,100666.47
2022-11-19T13:08:49.395Z,100661.97
2022-11-19T13:11:25.589Z,100667.66
2022-11-19T13:14:02.612Z,100668.75
2022-11-19T13:16:34.954Z,100670.06
2022-11-19T13:19:29.388Z,100665.91
2022-11-19T13:22:19.511Z,100659.19
2022-11-19T13:24:58.919Z,100667.34
2022-11-19T13:27:30.503Z,100664.53
2022-11-19T13:30:09.815Z,100661.25
2022-11-19T13:32:57.115Z,100661.81
2022-11-19T13:36:03.541Z,100661.81
2022-11-19T13:38:54.940Z,100660.34
2022-11-19T13:42:09.342Z,100659.59
2022-11-19T13:44:43.637Z,100665.72
2022-11-19T13:47:18.856Z,100670.41
2022-11-19T13:53:46.981Z,100657.13
2022-11-19T13:56:19.734Z,100652.00
2022-11-19T13:58:59.450Z,100649.47
2022-11-19T14:02:22.110Z,100650.16
2022-11-19T14:05:26.265Z,100649.97
2022-11-19T14:08:42.423Z,100641.53
2022-11-19T14:11:47.097Z,100640.47
2022-11-19T14:14:33.714Z,100639.00
2022-11-19T14:18:25.921Z,100642.97
2022-11-19T14:21:11.322Z,100638.81
2022-11-19T14:24:17.271Z,100640.81
2022-11-19T14:27:01.526Z,100636.56
2022-11-19T14:29:34.084Z,100635.06
2022-11-19T14:32:04.798Z,100634.47
2022-11-19T14:35:22.928Z,100620.47
2022-11-19T14:37:57.829Z,100643.53
2022-11-19T14:40:30.626Z,100633.16
2022-11-19T14:43:21.988Z,100630.91
2022-11-19T14:46:08.833Z,100624.97
2022-11-19T14:48:41.594Z,100619.72
2022-11-19T14:51:15.772Z,100620.56
2022-11-19T14:53:58.963Z,100616.13
2022-11-19T14:57:03.164Z,100615.78
2022-11-19T14:59:38.324Z,100619.31
2022-11-19T15:02:40.044Z,100611.63
2022-11-19T15:05:28.081Z,100605.44
2022-11-19T15:08:16.869Z,100616.13
2022-11-19T15:11:02.441Z,100617.81
2022-11-19T15:13:43.640Z,100617.81
2022-11-19T15:16:26.217Z,100608.53
2022-11-19T15:19:43.293Z,100611.31
2022-11-19T15:22:41.337Z,100608.53
2022-11-19T15:26:12.139Z,100603.44
2022-11-19T15:29:48.146Z,100609.63
2022-11-19T15:33:04.523Z,100597.66
2022-11-19T15:36:32.029Z,100601.00
2022-11-19T15:39:35.064Z,100590.97
2022-11-19T15:42:43.381Z,100582.66
2022-11-19T15:45:27.176Z,100583.06
2022-11-19T15:48:27.927Z,100581.97
2022-11-19T15:50:55.156Z,100576.66
2022-11-19T15:53:25.751Z,100576.78
2022-11-19T15:56:03.050Z,100574.44
2022-11-19T15:58:57.201Z,100562.09
2022-11-19T16:01:29.452Z,100563.78
2022-11-19T16:03:59.435Z,100562.00
2022-11-19T16:06:30.880Z,100546.88
2022-11-19T16:09:05.263Z,100551.22
2022-11-19T16:11:56.877Z,100551.78
2022-11-19T16:14:52.441Z,100556.34
2022-11-19T16:17:41.583Z,100550.16
2022-11-19T16:20:10.567Z,100554.09
2022-11-19T16:23:05.514Z,100549.84
2022-11-19T16:25:43.369Z,100550.25
2022-11-19T16:28:22.896Z,100548.88
2022-11-19T16:31:01.659Z,100547.69
2022-11-19T16:33:31.750Z,100536.19
2022-11-19T16:36:19.983Z,100542.03
2022-11-19T16:39:22.515Z,100529.16
2022-11-19T16:41:58.404Z,100536.47
2022-11-19T16:44:29.927Z,100535.84
2022-11-19T16:46:57.182Z,100530.72
2022-11-19T16:49:49.187Z,100527.41
2022-11-19T16:52:34.590Z,100531.03
2022-11-19T16:55:17.894Z,100536.66
2022-11-19T16:57:53.763Z,100522.59
2022-11-19T17:00:31.456Z,100523.47
2022-11-19T17:02:58.711Z,100523.78
2022-11-19T17:05:31.246Z,100515.22
2022-11-19T17:08:27.935Z,100518.94
2022-11-19T17:11:39.561Z,100520.53
2022-11-19T17:14:35.460Z,100530.06
2022-11-19T17:17:03.982Z,100520.78
2022-11-19T17:19:36.478Z,100526.72
2022-11-19T17:22:33.155Z,100520.47
2022-11-19T17:25:05.068Z,100516.31
2022-11-19T17:27:38.774Z,100512.88
2022-11-19T17:30:19.328Z,100528.44
2022-11-19T17:32:59.821Z,100516.97
2022-11-19T17:35:41.861Z,100515.81
2022-11-19T17:38:33.105Z,100515.69
2022-11-19T17:41:05.244Z,100517.59
2022-11-19T17:43:56.830Z,100517.31
2022-11-19T17:46:30.256Z,100513.88
2022-11-19T17:48:57.579Z,100512.81
2022-11-19T17:51:26.488Z,100511.59
2022-11-19T17:53:55.747Z,100512.94
2022-11-19T17:56:30.271Z,100518.41
2022-11-19T18:08:04.216Z,100515.47
2022-11-19T18:10:31.029Z,100513.09
2022-11-19T18:23:43.405Z,100522.38
2022-11-19T18:39:53.942Z,100514.94
2022-11-19T18:55:55.061Z,100507.53
2022-11-19T19:09:10.411Z,100508.03
2022-11-19T19:11:57.139Z,100512.59
2022-11-19T19:22:26.785Z,100509.44
2022-11-19T19:41:22.593Z,100499.34
2022-11-19T19:43:50.592Z,100496.44
2022-11-19T19:51:42.827Z,100498.38
2022-11-19T19:54:09.650Z,100493.72
2022-11-19T19:56:36.805Z,100496.75
2022-11-19T20:01:50.761Z,100507.94
2022-11-19T20:04:17.810Z,100508.13
2022-11-19T20:06:49.870Z,100514.75
2022-11-19T20:28:06.924Z,100507.03
2022-11-19T20:33:14.482Z,100516.00
2022-11-19T20:41:46.863Z,100509.69
2022-11-19T20:49:44.598Z,100508.63
2022-11-19T20:52:11.322Z,100506.88
2022-11-19T20:54:38.019Z,100509.00
2022-11-19T20:57:04.845Z,100502.91
2022-11-19T20:59:31.648Z,100505.84
2022-11-19T21:01:58.497Z,100499.03
2022-11-19T21:04:28.845Z,100500.16
2022-11-19T21:06:56.041Z,100492.75
2022-11-19T21:09:23.255Z,100494.28
2022-11-19T21:11:50.205Z,100492.84
2022-11-19T21:14:16.916Z,100478.25
2022-11-19T21:16:43.738Z,100470.84
2022-11-19T21:19:11.454Z,100475.59
2022-11-19T21:21:38.466Z,100467.72
2022-11-19T21:24:06.045Z,100472.25
2022-11-19T21:26:33.032Z,100469.69
2022-11-19T21:29:00.048Z,100468.94
2022-11-19T21:31:38.830Z,100464.50
2022-11-19T21:34:10.997Z,100464.50
2022-11-19T21:36:39.252Z,100469.59
2022-11-19T21:39:07.700Z,100466.28
2022-11-19T21:41:35.192Z,100469.88
2022-11-19T21:44:04.914Z,100462.97
2022-11-19T21:46:31.990Z,100471.97
2022-11-19T21:48:58.923Z,100468.56
2022-11-19T21:51:26.073Z,100461.72
2022-11-19T21:53:58.198Z,100458.22
2022-11-19T21:56:27.652Z,100465.50
2022-11-19T21:58:54.336Z,100455.84
2022-11-19T22:01:21.470Z,100461.16
2022-11-19T22:03:50.674Z,100448.94
2022-11-19T22:06:17.367Z,100449.78
2022-11-19T22:08:44.380Z,100446.28
2022-11-19T22:11:28.473Z,100438.31
2022-11-19T22:14:02.796Z,100441.72
2022-11-19T22:16:32.065Z,100444.56
2022-11-19T22:18:58.837Z,100440.38
2022-11-19T22:21:27.515Z,100443.03
2022-11-19T22:23:54.577Z,100432.53
2022-11-19T22:26:24.309Z,100429.88
2022-11-19T22:28:51.172Z,100436.97
2022-11-19T22:31:17.842Z,100434.22
2022-11-19T22:33:44.565Z,100440.28
2022-11-19T22:36:12.031Z,100428.16
2022-11-19T22:38:39.509Z,100423.63
2022-11-19T22:41:14.275Z,100431.50
2022-11-19T22:43:42.751Z,100427.13
2022-11-19T22:46:20.636Z,100431.50
2022-11-19T22:48:47.673Z,100426.94
2022-11-19T22:51:22.918Z,100427.78
2022-11-19T22:53:52.748Z,100424.19
2022-11-19T22:56:25.686Z,100418.88
2022-11-19T22:58:53.267Z,100418.78
2022-11-19T23:01:31.337Z,100415.31
2022-11-19T23:04:02.783Z,100419.00
2022-11-19T23:06:29.418Z,100417.47
2022-11-19T23:08:57.255Z,100406.94
2022-11-19T23:11:43.357Z,100410.72
2022-11-19T23:14:14.742Z,100410.22
2022-11-19T23:16:43.263Z,100414.59
2022-11-19T23:19:20.349Z,100419.63
2022-11-19T23:21:47.903Z,100423.88
2022-11-19T23:24:14.607Z,100414.91
2022-11-19T23:26:41.465Z,100413.09
2022-11-19T23:29:11.436Z,100413.09
2022-11-19T23:31:40.165Z,100404.38
2022-11-19T23:34:07.931Z,100404.47
2022-11-19T23:36:40.228Z,100409.88
2022-11-19T23:39:15.420Z,100407.28
2022-11-19T23:41:45.323Z,100395.09
2022-11-19T23:44:12.205Z,100402.09
2022-11-19T23:46:38.983Z,100404.84
2022-11-19T23:49:07.502Z,100396.88
2022-11-19T23:51:38.641Z,100393.13
2022-11-19T23:54:06.707Z,100400.09
2022-11-19T23:56:36.064Z,100400.09
2022-11-19T23:59:05.699Z,100401.00
